Brandon, United Kingdom
Current Conditions -  °F | °C
As of 6:28 AM on Monday 26 Jan 2015 (Local Time) from EGUL Reporting Station
Light Rain Light Rain  
Wind Chill: 41°   Ceiling: 2400
Heat Index: 46°   Visibility: 6mi
Dew Point: 46°   Wind: 12mph
Humidity: 100%   Direction: 240°WSW
Pressure: 30.09"   Gusts: NA
Location:  52.45°N, 0.63°E
Report Text: EGUL 260628Z AUTO 24010KT 9999 -RA BKN024 BKN060 08/08 A3009 RMK AO2 CIG 024V060 BKN024 V SCT CIG 024 RWY06 $
Loading
Personal Weather Stations






























Interactive Weather Map New forecast layout! Learn more

10-Day Weather Forecast

Advertisements
Track Severe Weather on mobile